Terminal Aerodrome Forecast
Issued by NWS

Home | Current Version | Previous Version | Graphics & Text | Print | Product List | Glossary On
Versions: 1 2 3 4 5 6 7 8 9 10 11 12 13 14 15 16 17
000
FTUS42 KMHX 251100
TAFISO
TAF
KISO 251121Z 2512/2612 23004KT P6SM VCSH BKN050
     FM251500 30007KT 5SM BR VCSH OVC020
     FM251900 34004KT 4SM -RA BR OVC010
     FM260200 03004KT 4SM -RA BR OVC005
      AMD LTD TO CLD VIS AND WIND=

USA.gov is the U.S. government's official web portal to all federal, state and local government web resources and services.